Kenockee Township, Michigan
Current Conditions -  °F | °C
As of 4:56 AM on Tuesday 21 Oct 2014 (Local Time) from KPHN Reporting Station
Moderate Rain Moderate Rain  
Wind Chill: 44°   Ceiling: 1000
Heat Index: 46°   Visibility: 4mi
Dew Point: 46°   Wind: 6mph
Humidity: 100%   Direction: 300°WNW
Pressure: 29.88"   Gusts: NA
Location:  43.076°N, 82.6968°W
Report Text: KPHN 210856Z AUTO 30005KT 4SM RA OVC010 08/08 A2988 RMK AO2
Loading
Personal Weather Stations






























Interactive Weather Map
Tropical Storm Tracking
New forecast layout! Learn more

10-Day Weather Forecast

Advertisements
Track Severe Weather on mobile